Meteo Giornale » Osservazioni meteo Stati Uniti (USA) » Redding
ore: 11:53 - Osservazioni Meteo Redding
Lat. 40° 30' N Lon. 122° 17' W Alt. 153 metri s.l.m.
28 °C
Sereno
Temp. 24 Ore
15 °C
35 °C
Sud
7.4 Km/h
Dew point 7 °C
Umidità 26 %
Visibilità 10 Km
Il sole sorge alle ore 06:35
Il sole tramonta alle ore 19:42
| Data e Ora | Cielo e Fenomeni | T °C | DP °C | Um. % | Pres. hPa | Vis. km | Vento km/h | |
|---|---|---|---|---|---|---|---|---|
| Oggi h: 11:53 | Sereno | 28 | 7 | 26 | 1010 | 10 | S 7.4 | |
| Oggi h: 10:53 | Sereno | 26 | 6 | 27 | 1010 | 10 | N 0 | |
| Oggi h: 09:53 | Sereno | 23 | 5 | 31 | 1011 | 10 | N 0 | |
| Oggi h: 08:53 | Sereno | 19 | 4 | 37 | 1011 | 10 | N 0 | |
| Oggi h: 07:53 | Sereno | 17 | 4 | 41 | 1011 | 10 | N 0 | |
| Oggi h: 06:53 | Sereno | 15 | 5 | 51 | 1010 | 10 | N 0 | |
| Oggi h: 05:53 | Sereno | 15 | 6 | 54 | 1010 | 10 | N 0 | |
| Oggi h: 04:53 | Sereno | 16 | 6 | 51 | 1009 | 10 | N 0 | |
| Oggi h: 03:53 | Sereno | 16 | 7 | 55 | 1010 | 10 | N 0 | |
| Oggi h: 02:53 | Sereno | 18 | 7 | 48 | 1010 | 10 | N 0 | |
| Oggi h: 01:53 | Sereno | 18 | 7 | 48 | 1010 | 10 | N 0 | |
| Oggi h: 00:53 | Sereno | 19 | 7 | 45 | 1010 | 10 | N 0 | |
| Ieri h: 23:53 | Sereno | 22 | 7 | 37 | 1009 | 10 | N/NE 7.4 | |
| Ieri h: 22:53 | Sereno | 22 | 7 | 37 | 1009 | 10 | N 0 | |
| Ieri h: 21:53 | Sereno | 26 | 7 | 29 | 1009 | 10 | S/SE 13 | |
| Ieri h: 20:53 | Sereno | 26 | 5 | 25 | 1008 | 10 | SE 9.3 | |
| Ieri h: 19:53 | Sereno | 29 | 4 | 20 | 1008 | 10 | S/SE 9.3 | |
| Ieri h: 18:53 | Sereno | 33 | 2 | 14 | 1008 | 10 | S/SE 11.1 | |
| Ieri h: 17:53 | Sereno | 34 | 0 | 11 | 1008 | 10 | S/SE 14.8 | |
| Ieri h: 16:53 | Sereno | 35 | -1 | 10 | 1008 | 10 | SE 14.8 | |
| Ieri h: 15:53 | Sereno | 34 | 1 | 12 | 1009 | 10 | S/SE 9.3 | |
| Ieri h: 14:53 | Sereno | 34 | 0 | 11 | 1010 | 10 | S/SO 14.8 | |
| Ieri h: 13:53 | Sereno | 33 | 1 | 13 | 1010 | 10 | N 5.5 | |
| Ieri h: 12:53 | Sereno | 32 | 2 | 14 | 1011 | 10 | N 7.4 | |



